Latest Weather Observations for Loxton

IDS60801

Issued at 1:05 pm CST Thursday 31 July 2014 (issued every 30 minutes, with the page automatically refreshed every 10 minutes)

About weather observations | Map of weather stations | Latest weather observations for SA | Other Formats
Station Details ID: 024024 Name: LOXTON RESEARCH CENTRE Lat: -34.44 Lon: 140.60 Height: 30.1 m
Data from the previous 72 hours. | See also: Recent months at Loxton
Date/Time
CST
Temp
°C
App
Temp
°C
Dew
Point
Rel
Hum
%
Delta-T
°C
Wind Press
QNH
hPa
Press
MSL
hPa
Rain
since 9 am
mm
Dir
 
Spd
km/h
Gust
km/h
Spd
kts
Gust
kts
31/01:00pm 20.8 11.2 -1.2 23 9.6 NW 39 61 21 33 1003.6 - 0.0
31/12:30pm 20.6 11.0 1.1 27 8.9 NW 41 65 22 35 1004.3 1004.4 0.0
31/12:00pm 20.4 11.8 2.4 30 8.4 WNW 37 57 20 31 1005.3 1005.4 0.0
31/11:30am 20.0 11.3 2.0 30 8.3 WNW 37 63 20 34 1005.8 1005.9 0.0
31/11:00am 19.2 10.8 1.3 30 8.1 NW 35 63 19 34 1006.2 - 0.0
31/10:30am 19.1 11.5 0.8 29 8.2 NW 30 50 16 27 1006.5 1006.6 0.0
31/10:18am 18.7 11.3 -0.7 27 8.4 NW 28 46 15 25 1006.6 - 0.0
31/10:00am 18.1 11.9 -0.4 28 8.0 NNW 22 39 12 21 1006.8 - 0.0
31/09:30am 15.4 10.3 0.9 37 6.3 NNW 17 30 9 16 1007.2 1007.3 0.0
31/09:00am 13.3 7.8 1.8 45 5.0 NNW 20 30 11 16 1007.5 1007.6 0.0
31/08:30am 11.9 7.4 2.2 51 4.2 NNW 15 28 8 15 1007.7 1007.8 0.0
31/08:00am 10.3 6.3 2.6 59 3.3 NNW 13 20 7 11 1008.0 - 0.0
31/07:30am 9.2 6.4 3.4 67 2.5 WNW 7 13 4 7 1008.5 1008.6 0.0
31/07:00am 9.1 5.6 3.3 67 2.5 W 11 20 6 11 1008.4 - 0.0
31/06:30am 10.6 6.3 3.0 59 3.3 N 15 24 8 13 1007.9 1008.0 0.0
31/06:00am 10.3 5.6 3.2 61 3.1 NNW 17 24 9 13 1008.0 1008.1 0.0
31/05:30am 10.7 6.5 3.7 62 3.1 NNW 15 24 8 13 1008.2 1008.3 0.0
31/05:00am 11.0 6.4 3.8 61 3.2 N 17 26 9 14 1008.6 - 0.0
31/04:30am 10.9 6.7 3.9 62 3.1 N 15 20 8 11 1009.1 1009.2 0.0
31/04:00am 11.0 6.5 4.1 62 3.1 N 17 26 9 14 1009.4 - 0.0
31/03:30am 11.1 7.4 4.5 64 3.0 N 13 19 7 10 1009.9 1010.0 0.0
31/03:00am 10.9 7.2 4.7 65 2.8 NNW 13 20 7 11 1010.5 1010.6 0.0
31/02:30am 11.0 7.7 4.8 65 2.8 NNW 11 24 6 13 1011.0 1011.1 0.0
31/02:00am 10.8 8.1 5.4 69 2.5 NNW 9 13 5 7 1011.5 - 0.0
31/01:30am 10.8 8.1 5.8 71 2.3 NNW 9 13 5 7 1012.0 1012.1 0.0
31/01:00am 10.1 8.0 6.5 78 1.7 NNW 7 13 4 7 1012.5 - 0.0
31/12:30am 11.3 8.8 6.7 73 2.2 NNW 9 11 5 6 1012.8 1012.8 0.0
31/12:00am 11.5 9.1 6.9 73 2.2 NNW 9 13 5 7 1013.1 1013.1 0.0
 
Date/Time
CST
Temp
°C
App
Temp
°C
Dew
Point
Rel
Hum
%
Delta-T
°C
Wind Press
QNH
hPa
Press
MSL
hPa
Rain
since 9 am
mm
Dir
 
Spd
km/h
Gust
km/h
Spd
kts
Gust
kts
30/11:30pm 11.9 9.5 7.1 72 2.3 NW 9 17 5 9 1013.4 1013.4 0.0
30/11:00pm 11.3 9.3 7.3 76 1.9 NNW 7 13 4 7 1013.6 - 0.0
30/10:30pm 11.9 10.0 7.6 75 2.1 WNW 7 11 4 6 1013.9 1013.9 0.0
30/10:00pm 10.0 8.7 7.5 84 1.2 N 4 7 2 4 1014.1 - 0.0
30/09:30pm 9.2 8.5 7.1 87 1.0 CALM 0 0 0 0 1014.5 1014.5 0.0
30/09:00pm 8.4 7.1 6.2 86 1.0 N 2 11 1 6 1015.0 1015.0 0.0
30/08:30pm 9.7 8.3 7.4 85 1.1 NNW 4 7 2 4 1015.2 1015.2 0.0
30/08:00pm 11.6 10.7 7.9 78 1.8 N 2 7 1 4 1015.2 - 0.0
30/07:30pm 14.2 12.1 8.2 67 3.0 W 9 13 5 7 1015.5 1015.5 0.0
30/07:00pm 13.2 11.5 8.4 72 2.4 NW 7 9 4 5 1015.6 - 0.0
30/06:30pm 14.7 13.1 8.6 67 3.1 WNW 7 11 4 6 1015.4 1015.4 0.0
30/06:00pm 15.8 13.7 8.1 60 3.9 WNW 9 13 5 7 1015.4 1015.4 0.0
30/05:30pm 16.7 13.7 7.8 55 4.5 WNW 13 20 7 11 1015.5 1015.5 0.0
30/05:00pm 17.8 13.4 7.5 51 5.2 NW 20 30 11 16 1015.4 - 0.0
30/04:30pm 18.3 13.8 6.9 47 5.7 WNW 20 32 11 17 1015.4 1015.4 0.0
30/04:00pm 18.7 13.4 7.0 46 5.9 WNW 24 39 13 21 1015.4 - 0.0
30/03:30pm 18.2 13.0 7.3 49 5.5 WNW 24 35 13 19 1015.5 1015.5 0.0
30/03:00pm 18.9 14.8 7.7 48 5.7 WNW 19 32 10 17 1015.9 1015.9 0.0
30/02:30pm 18.3 13.1 7.2 48 5.6 WNW 24 39 13 21 1016.3 1016.3 0.0
30/02:00pm 18.9 13.7 7.2 46 5.9 WNW 24 48 13 26 1016.5 - 0.0
30/01:52pm 18.8 12.9 7.6 48 5.7 NW 28 48 15 26 1016.6 - 0.0
30/01:30pm 18.5 13.1 8.2 51 5.3 WNW 26 39 14 21 1016.8 1016.8 0.0
30/01:00pm 18.0 12.7 8.5 53 4.9 WNW 26 43 14 23 1017.2 - 0.0
30/12:30pm 18.2 12.8 8.0 51 5.2 WNW 26 44 14 24 1017.8 1017.8 0.0
30/12:00pm 17.7 11.9 8.1 53 4.9 WNW 28 43 15 23 1018.5 1018.5 0.0
30/11:30am 18.4 12.7 8.3 51 5.2 WNW 28 41 15 22 1018.6 1018.6 0.0
30/11:00am 18.2 13.9 9.2 55 4.7 WNW 22 37 12 20 1018.8 - 0.0
30/10:30am 16.8 12.4 9.1 60 4.0 WNW 22 32 12 17 1019.3 1019.3 0.0
30/10:00am 16.3 12.4 9.6 64 3.5 NW 20 32 11 17 1019.2 - 0.0
30/09:30am 15.4 12.2 10.0 70 2.8 NW 17 24 9 13 1019.1 1019.1 0.0
30/09:00am 13.5 11.7 9.4 76 2.1 NW 9 13 5 7 1019.3 1019.3 0.0
30/08:30am 11.6 9.6 8.6 82 1.5 NNW 9 15 5 8 1019.3 1019.3 0.0
30/08:00am 11.0 8.9 8.1 82 1.4 NW 9 13 5 7 1019.1 - 0.0
30/07:30am 9.8 8.0 7.9 88 0.9 NW 7 13 4 7 1018.9 1018.9 0.0
30/07:00am 9.9 8.3 7.8 87 1.0 NNW 6 11 3 6 1018.7 - 0.0
30/06:30am 10.4 8.2 7.9 84 1.2 NNW 9 13 5 7 1018.4 1018.4 0.0
30/06:00am 10.4 8.6 7.9 84 1.2 NNW 7 9 4 5 1018.2 1018.2 0.0
30/05:30am 10.5 8.9 8.2 86 1.1 NNW 6 11 3 6 1018.0 1018.0 0.0
30/05:00am 8.8 8.2 7.5 91 0.6 CALM 0 0 0 0 1018.0 - 0.0
30/04:30am 11.1 9.7 8.7 85 1.2 NW 6 9 3 5 1017.9 1017.9 0.0
30/04:00am 11.4 9.4 8.6 83 1.4 WNW 9 13 5 7 1017.8 - 0.0
30/03:30am 11.3 9.5 8.0 80 1.6 NNW 7 11 4 6 1017.8 1017.8 0.0
30/03:00am 11.6 9.8 7.9 78 1.8 NNW 7 11 4 6 1018.0 1018.0 0.0
30/02:30am 11.5 9.9 8.2 80 1.6 NNW 6 9 3 5 1018.2 1018.2 0.0
30/02:00am 11.5 10.6 9.3 86 1.1 WNW 4 7 2 4 1018.5 - 0.0
30/01:30am 11.6 10.6 9.0 84 1.3 W 4 6 2 3 1018.8 1018.8 0.0
30/01:00am 11.6 10.0 8.8 83 1.4 NW 7 11 4 6 1018.8 - 0.0
30/12:30am 11.9 10.5 8.9 82 1.5 WNW 6 9 3 5 1018.9 1018.9 0.0
30/12:00am 12.3 10.7 8.9 80 1.7 NNW 7 13 4 7 1018.8 1018.8 0.0
 
Date/Time
CST
Temp
°C
App
Temp
°C
Dew
Point
Rel
Hum
%
Delta-T
°C
Wind Press
QNH
hPa
Press
MSL
hPa
Rain
since 9 am
mm
Dir
 
Spd
km/h
Gust
km/h
Spd
kts
Gust
kts
29/11:30pm 13.0 11.1 9.0 77 2.0 NNW 9 11 5 6 1019.0 1019.0 0.0
29/11:00pm 12.4 11.8 9.0 80 1.7 NW 2 7 1 4 1019.1 - 0.0
29/10:30pm 11.4 10.9 9.2 86 1.1 WNW 2 7 1 4 1019.1 1019.1 0.0
29/10:00pm 12.0 10.7 9.2 83 1.4 WNW 6 7 3 4 1019.1 - 0.0
29/09:30pm 14.0 12.1 9.1 72 2.5 WNW 9 13 5 7 1018.7 1018.7 0.0
29/09:00pm 14.1 12.3 9.4 73 2.4 NW 9 13 5 7 1018.5 1018.5 0.0
29/08:30pm 14.7 12.9 9.4 70 2.7 WNW 9 13 5 7 1018.4 1018.4 0.0
29/08:00pm 14.4 12.7 9.7 73 2.4 WNW 9 13 5 7 1018.1 - 0.0
29/07:30pm 13.7 13.0 10.2 79 1.8 WNW 4 7 2 4 1018.2 1018.2 0.0
29/07:00pm 14.2 13.0 10.4 78 2.0 W 7 11 4 6 1017.8 - 0.0
29/06:30pm 14.8 13.7 10.8 77 2.1 W 7 13 4 7 1017.7 1017.7 0.0
29/06:00pm 15.4 12.8 10.7 73 2.5 W 15 20 8 11 1017.5 1017.5 0.0
29/05:30pm 16.8 11.5 10.0 64 3.6 WNW 28 46 15 25 1017.2 1017.2 0.0
29/05:26pm 17.0 11.7 9.8 62 3.8 WNW 28 46 15 25 1017.1 - 0.0
29/05:00pm 17.3 12.7 9.5 60 4.1 W 24 44 13 24 1016.9 - 0.0
29/04:30pm 17.6 13.7 9.4 58 4.3 WNW 20 32 11 17 1016.8 1016.8 0.0
29/04:00pm 17.6 13.9 9.4 58 4.3 WNW 19 35 10 19 1016.6 - 0.0
29/03:30pm 17.7 12.5 9.0 56 4.5 W 26 37 14 20 1016.4 1016.4 0.0
29/03:00pm 17.9 12.3 8.8 55 4.7 WNW 28 39 15 21 1016.2 1016.2 0.0
29/02:30pm 18.0 13.2 9.0 55 4.7 WNW 24 41 13 22 1016.4 1016.4 0.0
29/02:00pm 18.0 12.8 8.7 54 4.8 NW 26 39 14 21 1016.0 - 0.0
29/01:30pm 17.9 12.3 8.6 54 4.8 WNW 28 43 15 23 1015.9 1015.9 0.0
29/01:00pm 18.7 14.2 8.7 52 5.2 WNW 22 33 12 18 1016.0 - 0.0
29/12:48pm 18.0 12.5 9.0 55 4.7 WNW 28 48 15 26 1016.2 - 0.0
29/12:30pm 17.0 12.0 7.9 55 4.6 NW 24 35 13 19 1016.6 1016.6 0.0
29/12:00pm 17.2 11.3 7.7 53 4.8 WNW 28 41 15 22 1016.9 1016.9 0.0
29/11:30am 16.8 11.3 7.6 54 4.6 NW 26 41 14 22 1017.5 1017.5 0.0
29/11:00am 16.2 11.8 7.4 56 4.4 NW 20 32 11 17 1017.4 - 0.0
29/10:30am 16.3 11.4 6.7 53 4.7 NW 22 33 12 18 1017.6 1017.6 0.0
29/10:00am 15.7 10.8 7.0 56 4.3 NW 22 39 12 21 1017.3 - 0.0
29/09:30am 14.7 10.5 5.9 55 4.2 NW 17 28 9 15 1017.6 1017.6 0.0
29/09:00am 13.1 9.1 5.1 58 3.7 NW 15 24 8 13 1017.7 1017.7 0.0
29/08:30am 11.5 7.8 4.4 61 3.2 NNW 13 17 7 9 1017.3 1017.3 0.0
29/08:00am 10.3 7.0 4.5 67 2.6 NNW 11 17 6 9 1016.9 - 0.0
29/07:30am 9.9 6.2 4.3 68 2.5 NNW 13 20 7 11 1016.6 1016.6 0.0
29/07:00am 9.4 6.8 4.2 70 2.3 NNW 7 11 4 6 1017.0 - 0.0
29/06:30am 9.6 6.6 4.2 69 2.4 NW 9 17 5 9 1016.8 1016.8 0.0
29/06:00am 9.6 6.6 4.2 69 2.4 NW 9 17 5 9 1016.3 1016.3 0.0
29/05:30am 9.9 5.7 3.7 65 2.7 NNW 15 22 8 12 1015.6 1015.6 0.0
29/05:00am 8.8 5.8 4.0 72 2.1 NNW 9 15 5 8 1015.5 - 0.0
29/04:30am 8.1 5.5 4.4 77 1.6 NNW 7 11 4 6 1015.8 1015.8 0.0
29/04:00am 8.9 6.5 5.3 78 1.6 NNW 7 13 4 7 1016.1 - 0.0
29/03:30am 9.4 7.0 5.2 75 1.9 NW 7 11 4 6 1016.3 1016.3 0.0
29/03:00am 10.1 6.9 5.3 72 2.2 NNW 11 15 6 8 1016.2 1016.2 0.0
29/02:30am 10.5 7.7 5.2 70 2.4 NW 9 13 5 7 1016.2 1016.2 0.0
29/02:00am 9.9 7.7 6.0 77 1.8 NW 7 11 4 6 1016.3 - 0.0
29/01:30am 10.6 7.7 6.3 75 2.0 NNW 11 17 6 9 1016.3 1016.3 0.0
29/01:00am 10.3 7.8 6.7 78 1.7 NNW 9 15 5 8 1016.8 - 0.0
29/12:30am 9.5 7.1 6.9 84 1.2 NNW 9 15 5 8 1017.1 1017.1 0.0
29/12:00am 6.9 6.0 6.0 94 0.4 CALM 0 7 0 4 1017.4 1017.4 0.0
 
Date/Time
CST
Temp
°C
App
Temp
°C
Dew
Point
Rel
Hum
%
Delta-T
°C
Wind Press
QNH
hPa
Press
MSL
hPa
Rain
since 9 am
mm
Dir
 
Spd
km/h
Gust
km/h
Spd
kts
Gust
kts
28/11:30pm 6.9 5.5 5.5 91 0.6 WNW 2 6 1 3 1017.4 1017.4 0.0
28/11:00pm 8.5 6.4 5.6 82 1.3 WNW 6 9 3 5 1017.6 - 0.0
28/10:30pm 9.4 7.1 5.9 79 1.6 WNW 7 11 4 6 1017.6 1017.6 0.0
28/10:00pm 8.3 6.2 5.9 85 1.1 NW 6 6 3 3 1017.7 - 0.0
28/09:30pm 11.7 9.5 6.4 70 2.5 W 7 9 4 5 1017.5 1017.5 0.0
28/09:00pm 12.7 10.5 6.4 65 3.0 W 7 9 4 5 1017.6 1017.6 0.0
28/08:30pm 13.3 10.5 6.9 65 3.1 W 11 17 6 9 1017.5 1017.5 0.0
28/08:00pm 12.6 10.8 7.2 69 2.6 W 6 9 3 5 1017.2 - 0.0
28/07:30pm 13.1 10.9 6.4 64 3.2 NW 7 11 4 6 1016.9 1016.9 0.0
28/07:00pm 10.6 9.5 7.0 78 1.7 NW 2 7 1 4 1016.8 - 0.0
28/06:30pm 13.5 12.8 6.9 64 3.2 CALM 0 6 0 3 1016.6 1016.6 0.0
28/06:00pm 15.8 12.1 6.1 52 4.7 WNW 15 26 8 14 1016.2 1016.2 0.0
28/05:30pm 15.0 12.7 5.5 53 4.5 NNW 7 11 4 6 1016.3 1016.3 0.0
28/05:00pm 16.2 13.4 5.0 47 5.3 WNW 9 13 5 7 1016.2 - 0.0
28/04:30pm 16.8 13.9 4.5 44 5.8 W 9 13 5 7 1016.3 1016.3 0.0
28/04:00pm 17.1 13.6 3.5 40 6.3 W 11 17 6 9 1016.1 - 0.0
28/03:30pm 16.2 13.9 5.6 49 5.1 WSW 7 9 4 5 1016.4 1016.4 0.0
28/03:00pm 15.6 13.3 5.0 49 5.0 NW 6 7 3 4 1016.3 1016.3 0.0
28/02:30pm 15.1 12.5 4.3 48 5.0 NW 7 9 4 5 1016.4 1016.4 0.0
28/02:00pm 14.9 12.3 4.3 49 4.9 WNW 7 15 4 8 1016.6 - 0.0
28/01:30pm 14.6 11.9 3.9 48 4.9 WNW 7 13 4 7 1017.0 1017.0 0.0

Other Formats:

Comma delimited format used in spreadsheet applications
http://www.bom.gov.au/fwo/IDS60801/IDS60801.94682.axf

JavaScript Object Notation format (JSON) in row-major order
http://www.bom.gov.au/fwo/IDS60801/IDS60801.94682.json